Terminal Aerodrome Forecast
Issued by NWS

Current Version | Previous Version | Text Only | Print | Product List | Glossary On
Versions: 1 2 3 4 5 6 7 8 9 10 11 12 13 14 15 16 17 18 19 20 21
000
FTUS41 KILN 271536 AAC
TAFLCK
TAF AMD
KLCK 271536Z 2716/2812 VRB03KT P6SM BKN015
     FM271700 26008KT P6SM BKN035
     FM280100 01004KT P6SM SCT080
     FM280900 VRB03KT P6SM VCSH BKN025=

USA.gov is the U.S. government's official web portal to all federal, state and local government web resources and services.